Flight Track Log - Related Links

Times and Time Zones

All times are in EDT time to prevent confusion due to time zone crossing. See the SWA2009 flight status page for this flight to view local times or setup timezone preferences in your user account.

Time Position Orientation Groundspeed Altitude Reporting Facility
EDT Latitude Longitude Course Direction KTS MPH feet Rate Location/Type
Sat 01:15:34 PM 39.1333 -76.6667 311° West 196 226 2,400  Level Potomac TRACON
Sat 01:16:34 PM 39.1667 -76.7167 311° West 241 277 4,800 2,529 Climbing Potomac TRACON
Sat 01:17:35 PM 39.1833 -76.8167 282° West 270 311 7,500 3,354 Climbing Potomac TRACON
Sat 01:18:41 PM 39.2167 -76.9167 293° West 265 305 11,900 3,429 Climbing Potomac TRACON
Sat 01:19:41 PM 39.2167 -77.0167 270° West 290 334 14,700 2,550 Climbing Potomac TRACON
Sat 01:20:41 PM 39.2167 -77.1333 270° West 342 394 17,000 1,150 Climbing Potomac TRACON
Sat 01:21:41 PM 39.2500 -77.2500 290° West 341 392 17,000  Level Potomac TRACON
Sat 01:22:35 PM 39.3000 -77.3500 303° West 336 387 17,000  Level Potomac TRACON
Sat 01:23:35 PM 39.3500 -77.4500 303° West 337 388 17,000 45 Level Potomac TRACON
Sat 01:24:47 PM 39.3975 -77.5600 299° West 365 420 17,100 1,091 Climbing Washington Center
Sat 01:25:47 PM 39.4478 -77.6664 301° West 360 414 19,400 2,500 Climbing Washington Center
Sat 01:26:47 PM 39.4981 -77.7781 300° West 360 414 22,100 2,550 Climbing Washington Center
Sat 01:27:47 PM 39.5458 -77.8953 298° West 360 414 24,500 1,971 Climbing Washington Center
Sat 01:30:14 PM 39.6444 -78.2214 292° West 395 455 28,900 1,884 Climbing Cleveland Center
Sat 01:31:14 PM 39.6850 -78.3631 290° West 415 478 31,000 2,150 Climbing Cleveland Center
Sat 01:32:14 PM 39.7269 -78.4994 292° West 415 478 33,200 2,200 Climbing Cleveland Center
Sat 01:33:14 PM 39.7878 -78.6297 301° West 407 468 35,400 1,400 Climbing Cleveland Center
Sat 01:34:14 PM 39.8461 -78.7525 302° West 391 450 36,000 300 Climbing Cleveland Center
Sat 01:35:14 PM 39.9042 -78.8728 302° West 391 450 36,000  Level Cleveland Center
Sat 01:36:14 PM 39.9578 -78.9797 303° West 398 458 36,000  Level Cleveland Center
Sat 01:37:14 PM 40.0136 -79.1003 301° West 398 458 36,000  Level Cleveland Center
Sat 01:38:14 PM 40.0697 -79.2319 299° West 392 451 36,000  Level Cleveland Center
Sat 01:39:14 PM 40.1231 -79.3397 303° West 392 451 36,000 300 Level Cleveland Center
Sat 01:40:14 PM 40.1783 -79.4608 301° West 392 451 36,600 1,000 Climbing Cleveland Center
Sat 01:41:14 PM 40.2336 -79.5794 301° West 392 451 38,000 700 Climbing Cleveland Center
Sat 01:42:14 PM 40.2869 -79.7014 300° West 392 451 38,000  Level Cleveland Center
Sat 01:43:14 PM 40.3419 -79.8203 301° West 392 451 38,000  Level Cleveland Center
Sat 01:44:14 PM 40.3947 -79.9342 301° West 392 451 38,000  Level Cleveland Center
Sat 01:45:14 PM 40.4475 -80.0619 299° West 392 451 38,000  Level Cleveland Center
Sat 01:46:14 PM 40.5000 -80.1789 301° West 387 445 38,000  Level Cleveland Center
Sat 01:47:14 PM 40.5506 -80.2961 300° West 375 432 38,000  Level Cleveland Center
Sat 01:48:14 PM 40.6028 -80.4136 300° West 375 432 38,000  Level Cleveland Center
Sat 01:49:14 PM 40.6614 -80.5419 301° West 375 432 38,000  Level Cleveland Center
Sat 01:50:14 PM 40.7133 -80.6597 300° West 375 432 38,000  Level Cleveland Center
Sat 01:51:14 PM 40.7819 -80.7669 310° West 375 432 38,000  Level Cleveland Center
Sat 01:52:14 PM 40.8506 -80.8769 310° West 380 437 38,000  Level Cleveland Center
Sat 01:53:14 PM 40.9150 -80.9869 308° West 380 437 38,000  Level Cleveland Center
Sat 01:54:14 PM 40.9792 -81.1003 307° West 385 443 38,000  Level Cleveland Center
Sat 01:55:14 PM 41.0472 -81.2108 309° West 386 444 38,000  Level Cleveland Center
Sat 01:56:14 PM 41.1133 -81.3217 308° West 386 444 38,000  Level Cleveland Center
Sat 01:57:14 PM 41.1833 -81.4328 310° West 391 450 38,000  Level Cleveland Center
Sat 01:58:14 PM 41.2514 -81.5469 308° West 396 456 38,000  Level Cleveland Center
Sat 01:59:14 PM 41.3192 -81.6586 309° West 396 456 38,000  Level Cleveland Center
Sat 02:00:14 PM 41.3847 -81.7731 307° West 396 456 38,000  Level Cleveland Center
Sat 02:01:14 PM 41.4500 -81.8906 307° West 391 450 38,000  Level Cleveland Center
Sat 02:02:14 PM 41.5156 -82.0031 308° West 391 450 38,000  Level Cleveland Center
Sat 02:03:14 PM 41.5828 -82.1156 309° West 391 450 38,000  Level Cleveland Center
Sat 02:04:14 PM 41.6458 -82.2281 307° West 391 450 38,000  Level Cleveland Center
Sat 02:05:14 PM 41.7028 -82.3269 308° West 391 450 38,000  Level Cleveland Center
Sat 02:06:14 PM 41.7697 -82.4400 308° West 391 450 38,000  Level Cleveland Center
Sat 02:07:14 PM 41.8367 -82.5536 308° West 391 450 38,000  Level Cleveland Center
Sat 02:08:14 PM 41.9014 -82.6672 307° West 391 450 38,000  Level Cleveland Center
Sat 02:09:14 PM 41.9658 -82.7839 307° West 386 444 38,000  Level Cleveland Center
Sat 02:10:14 PM 42.0303 -82.8978 307° West 386 444 38,000  Level Cleveland Center
Sat 02:11:14 PM 42.0969 -83.0122 308° West 391 450 38,000  Level Cleveland Center
Sat 02:12:14 PM 42.1631 -83.1294 307° West 391 450 38,000  Level Cleveland Center
Sat 02:13:14 PM 42.2353 -83.2586 307° West 391 450 38,000  Level Cleveland Center
Sat 02:14:14 PM 42.2969 -83.3736 306° West 391 450 38,000  Level Cleveland Center
Sat 02:15:14 PM 42.3650 -83.4917 308° West 391 450 38,000  Level Cleveland Center
Sat 02:16:14 PM 42.4250 -83.5931 309° West 389 448 38,000  Level Cleveland Center
Sat 02:17:14 PM 42.4867 -83.7058 307° West 389 448 38,000  Level Cleveland Center
Sat 02:18:14 PM 42.5500 -83.8217 307° West 389 448 38,000  Level Cleveland Center
Sat 02:19:14 PM 42.6214 -83.9525 307° West 389 448 38,000  Level Cleveland Center
Sat 02:20:14 PM 42.6847 -84.0689 307° West 389 448 38,000  Level Cleveland Center
Sat 02:21:14 PM 42.7361 -84.1622 307° West 389 448 38,000  Level Cleveland Center
Sat 02:22:14 PM 42.8128 -84.3025 307° West 389 448 38,000  Level Cleveland Center
Sat 02:24:20 PM 42.9478 -84.5486 307° West 388 447 38,000  Level Chicago Center
Sat 02:25:22 PM 43.0122 -84.6689 306° West 394 453 38,000  Level Chicago Center
Sat 02:26:24 PM 43.0756 -84.7892 306° West 391 450 38,000  Level Chicago Center
Sat 02:27:25 PM 43.1369 -84.9128 304° West 393 452 38,000  Level Chicago Center
Sat 02:28:27 PM 43.1458 -85.0564 275° West 384 442 38,000 -48 Level Chicago Center
Sat 02:29:29 PM 43.1503 -85.1997 272° West 379 436 37,900 -581 Descending Chicago Center
Sat 02:30:31 PM 43.1544 -85.3447 272° West 382 440 36,800 -1,902 Descending Chicago Center
Sat 02:31:32 PM 43.1586 -85.5172 272° West 381 438 34,000 -2,341 Descending Chicago Center
Sat 02:32:34 PM 43.1614 -85.6561 272° West 371 427 32,000 -1,887 Descending Chicago Center
Sat 02:33:36 PM 43.1642 -85.7892 272° West 358 412 30,100 -1,790 Descending Chicago Center
Sat 02:34:38 PM 43.1675 -85.9158 272° West 343 395 28,300 -1,756 Descending Chicago Center
Sat 02:35:39 PM 43.1697 -86.0383 271° West 332 382 26,500 -1,902 Descending Chicago Center
Sat 02:36:41 PM 43.1683 -86.1817 269° West 322 371 24,400 -1,839 Descending Chicago Center
Sat 02:37:43 PM 43.1658 -86.2978 268° West 312 359 22,700 -1,403 Descending Chicago Center
Sat 02:38:45 PM 43.1642 -86.4203 269° West 320 368 21,500 -1,065 Descending Chicago Center
Sat 02:39:47 PM 43.1617 -86.5367 268° West 312 359 20,500 -1,268 Descending Chicago Center
Sat 02:40:48 PM 43.1597 -86.6531 269° West 303 349 18,900 -1,756 Descending Chicago Center
Sat 02:41:50 PM 43.1569 -86.7839 268° West 293 337 16,900 -1,694 Descending Chicago Center
Sat 02:42:52 PM 43.1553 -86.8889 269° West 281 323 15,400 -1,452 Descending Chicago Center
Sat 02:43:54 PM 43.1531 -86.9900 268° West 269 310 13,900 -1,452 Descending Chicago Center
Sat 02:44:56 PM 43.1511 -87.0867 268° West 258 297 12,400 -1,403 Descending Chicago Center
Sat 02:45:58 PM 43.1475 -87.1814 267° West 251 289 11,000 -1,161 Descending Chicago Center
Sat 02:47:00 PM 43.1464 -87.2753 269° West 248 285 10,000 -919 Descending Chicago Center
Sat 02:48:02 PM 43.1428 -87.3733 267° West 242 278 9,100 -1,161 Descending Chicago Center
Sat 02:49:04 PM 43.1472 -87.4625 274° West 236 272 7,600 -1,024 Descending Chicago Center
Sat 02:50:05 PM 43.1528 -87.5622 274° West 225 259 7,000 -244 Descending Chicago Center
Sat 02:51:07 PM 43.1617 -87.6375 279° West 205 236 7,100  Climbing Chicago Center
Sat 02:52:09 PM 43.1678 -87.7092 277° West 193 222 7,000 -484 Descending Chicago Center
Sat 02:53:11 PM 43.1731 -87.7675 277° West 162 186 6,100 -968 Descending Chicago Center
Sat 02:54:13 PM 43.1625 -87.8167 254° West 139 160 5,000 -1,113 Descending Chicago Center
Sat 02:55:15 PM 43.1350 -87.8447 217° Southwest 124 143 3,800 -1,016 Descending Chicago Center
Sat 02:56:17 PM 43.0961 -87.8692 205° Southwest 131 151 2,900 -532 Descending Chicago Center
Sat 02:57:19 PM 43.0558 -87.8747 186° South 140 161 2,700 -389 Descending Chicago Center
Sat 02:58:05 PM 43.0333 -87.8833 196° South 135 155 2,200 -623 Descending KMKE
Sat 02:59:05 PM 43.0000 -87.8833 180° South 103 119 1,600 -600 Descending KMKE
Sat 03:02:00 PM 42.9469 -87.8971 180° South  Level Estimated

Login

Don't have an account? Register now (free) for customized features, flight alerts, and more!